createdAt,value
2023-04-09T00:01:07.180Z,4.54
2023-04-09T00:02:10.839Z,4.53
2023-04-09T00:03:14.790Z,4.52
2023-04-09T00:04:17.828Z,4.52
2023-04-09T00:05:19.681Z,4.49
2023-04-09T00:06:22.636Z,4.49
2023-04-09T00:07:24.442Z,4.46
2023-04-09T00:08:27.354Z,4.44
2023-04-09T00:09:29.623Z,4.41
2023-04-09T00:10:32.440Z,4.37
2023-04-09T00:11:34.296Z,4.32
2023-04-09T00:12:37.914Z,4.29
2023-04-09T00:13:40.152Z,4.25
2023-04-09T00:14:44.394Z,4.21
2023-04-09T00:15:46.801Z,4.18
2023-04-09T00:16:49.629Z,4.15
2023-04-09T00:17:52.352Z,4.12
2023-04-09T00:18:56.383Z,4.08
2023-04-09T00:19:58.207Z,4.01
2023-04-09T00:21:01.010Z,3.91
2023-04-09T00:22:03.231Z,3.81
2023-04-09T00:23:06.085Z,3.71
2023-04-09T00:24:07.910Z,3.62
2023-04-09T00:25:10.758Z,3.55
2023-04-09T00:26:12.581Z,3.48
2023-04-09T00:27:15.780Z,3.43
2023-04-09T00:28:18.069Z,3.38
2023-04-09T00:29:21.317Z,3.33
2023-04-09T00:30:24.772Z,3.26
2023-04-09T00:31:27.666Z,3.18
2023-04-09T00:32:29.521Z,3.11
2023-04-09T00:33:32.358Z,3.03
2023-04-09T00:34:34.374Z,2.97
2023-04-09T00:35:37.226Z,2.94
2023-04-09T00:36:39.080Z,2.91
2023-04-09T00:37:42.052Z,2.89
2023-04-09T00:38:43.935Z,2.86
2023-04-09T00:39:47.763Z,2.83
2023-04-09T00:40:50.449Z,2.79
2023-04-09T00:41:57.854Z,2.79
2023-04-09T00:42:59.660Z,2.79
2023-04-09T00:44:02.511Z,2.77
2023-04-09T00:45:06.021Z,2.76
2023-04-09T00:46:10.342Z,2.74
2023-04-09T00:47:12.606Z,2.73
2023-04-09T00:48:16.145Z,2.72
2023-04-09T00:49:18.074Z,2.72
2023-04-09T00:50:24.645Z,2.73
2023-04-09T00:51:26.792Z,2.72
2023-04-09T00:52:31.029Z,2.72
2023-04-09T00:53:34.937Z,2.73
2023-04-09T00:54:37.016Z,2.72
2023-04-09T00:55:41.521Z,2.72
2023-04-09T00:56:44.099Z,2.72
2023-04-09T00:57:46.950Z,2.68
2023-04-09T00:58:49.352Z,2.65
2023-04-09T00:59:52.378Z,2.60
2023-04-09T01:00:56.084Z,2.58
2023-04-09T01:01:59.344Z,2.58
2023-04-09T01:03:02.590Z,2.59
2023-04-09T01:04:04.771Z,2.60
2023-04-09T01:05:08.081Z,2.61
2023-04-09T01:06:13.749Z,2.63
2023-04-09T01:07:21.881Z,2.64
2023-04-09T01:08:32.532Z,2.62
2023-04-09T01:09:38.342Z,2.63
2023-04-09T01:10:42.685Z,2.61
2023-04-09T01:11:52.925Z,2.61
2023-04-09T01:13:03.928Z,2.61
2023-04-09T01:14:11.393Z,2.61
2023-04-09T01:15:16.998Z,2.61
2023-04-09T01:16:19.490Z,2.62
2023-04-09T01:17:27.238Z,2.64
2023-04-09T01:18:31.565Z,2.64
2023-04-09T01:19:43.123Z,2.65
2023-04-09T01:20:50.302Z,2.66
2023-04-09T01:21:53.590Z,2.65
2023-04-09T01:23:02.636Z,2.64
2023-04-09T01:24:15.947Z,2.65
2023-04-09T01:25:32.921Z,2.65
2023-04-09T01:26:46.793Z,2.65
2023-04-09T01:27:59.579Z,2.66
2023-04-09T01:29:04.304Z,2.66
2023-04-09T01:30:07.605Z,2.69
2023-04-09T01:31:13.589Z,2.68
2023-04-09T01:32:17.016Z,2.69
2023-04-09T01:33:25.023Z,2.71
2023-04-09T01:34:27.588Z,2.74
2023-04-09T01:35:30.900Z,2.79
2023-04-09T01:36:33.634Z,2.83
2023-04-09T01:37:37.008Z,2.86
2023-04-09T01:38:41.127Z,2.91
2023-04-09T01:39:44.265Z,2.93
2023-04-09T01:40:46.180Z,2.96
2023-04-09T01:41:49.580Z,2.98
2023-04-09T01:42:52.032Z,3.01
2023-04-09T01:43:55.372Z,3.03
2023-04-09T01:44:59.381Z,3.06
2023-04-09T01:46:03.437Z,3.10
2023-04-09T01:47:05.555Z,3.12
2023-04-09T01:48:08.404Z,3.14
2023-04-09T01:49:11.634Z,3.14
2023-04-09T01:50:15.000Z,3.13
2023-04-09T01:51:17.658Z,3.12
2023-04-09T01:52:20.828Z,3.15
2023-04-09T01:53:22.829Z,3.14
2023-04-09T01:54:26.238Z,3.15
2023-04-09T01:55:31.339Z,3.16
2023-04-09T01:56:42.037Z,3.15
2023-04-09T01:57:43.839Z,3.12
2023-04-09T01:58:46.812Z,3.09
2023-04-09T01:59:48.643Z,3.07
2023-04-09T02:00:59.929Z,3.05
2023-04-09T02:02:11.117Z,3.01
2023-04-09T02:03:18.369Z,3.00
2023-04-09T02:04:25.157Z,3.00
2023-04-09T02:05:29.490Z,2.98
2023-04-09T02:06:36.013Z,2.98
2023-04-09T02:07:40.570Z,2.99
2023-04-09T02:08:46.492Z,3.00
2023-04-09T02:09:48.601Z,3.00
2023-04-09T02:10:55.617Z,3.02
2023-04-09T02:11:58.875Z,3.04
2023-04-09T02:13:03.191Z,3.05
2023-04-09T02:14:08.665Z,3.08
2023-04-09T02:15:13.992Z,3.10
2023-04-09T02:16:17.700Z,3.10
2023-04-09T02:17:20.830Z,3.12
2023-04-09T02:18:24.261Z,3.13
2023-04-09T02:19:39.538Z,3.14
2023-04-09T02:20:41.330Z,3.16
2023-04-09T02:21:45.692Z,3.16
2023-04-09T02:22:47.705Z,3.17
2023-04-09T02:23:50.748Z,3.20
2023-04-09T02:24:53.400Z,3.22
2023-04-09T02:25:56.285Z,3.24
2023-04-09T02:26:58.188Z,3.24
2023-04-09T02:28:01.230Z,3.24
2023-04-09T02:29:03.535Z,3.25
2023-04-09T02:30:07.451Z,3.26
2023-04-09T02:31:09.500Z,3.26
2023-04-09T02:32:13.768Z,3.26
2023-04-09T02:33:15.648Z,3.27
2023-04-09T02:34:18.668Z,3.26
2023-04-09T02:35:20.818Z,3.26
2023-04-09T02:36:23.590Z,3.27
2023-04-09T02:37:26.211Z,3.26
2023-04-09T02:38:29.030Z,3.28
2023-04-09T02:39:31.013Z,3.29
2023-04-09T02:40:33.877Z,3.27
2023-04-09T02:41:35.859Z,3.28
2023-04-09T02:42:38.722Z,3.27
2023-04-09T02:43:42.183Z,3.27
2023-04-09T02:44:45.281Z,3.27
2023-04-09T02:45:48.636Z,3.26
2023-04-09T02:46:52.458Z,3.27
2023-04-09T02:47:55.953Z,3.24
2023-04-09T02:48:58.792Z,3.23
2023-04-09T02:50:00.724Z,3.21
2023-04-09T02:51:06.922Z,3.20
2023-04-09T02:52:10.153Z,3.20
2023-04-09T02:53:13.128Z,3.21
2023-04-09T02:54:14.965Z,3.22
2023-04-09T02:55:19.759Z,3.23
2023-04-09T02:56:21.725Z,3.26
2023-04-09T02:57:24.562Z,3.26
2023-04-09T02:58:26.408Z,3.27
2023-04-09T02:59:29.256Z,3.30
2023-04-09T03:00:31.384Z,3.32
2023-04-09T03:01:34.227Z,3.33
2023-04-09T03:02:36.624Z,3.35
2023-04-09T03:03:42.520Z,3.34
2023-04-09T03:04:44.407Z,3.36
2023-04-09T03:05:48.058Z,3.37
2023-04-09T03:06:51.591Z,3.36
2023-04-09T03:07:55.073Z,3.38
2023-04-09T03:08:58.176Z,3.40
2023-04-09T03:10:00.979Z,3.41
2023-04-09T03:11:02.911Z,3.39
2023-04-09T03:12:05.862Z,3.39
2023-04-09T03:13:07.722Z,3.39
2023-04-09T03:14:10.927Z,3.38
2023-04-09T03:15:14.409Z,3.39
2023-04-09T03:16:17.333Z,3.41
2023-04-09T03:17:19.209Z,3.43
2023-04-09T03:18:22.518Z,3.42
2023-04-09T03:19:30.693Z,3.43
2023-04-09T03:20:32.538Z,3.41
2023-04-09T03:21:35.440Z,3.41
2023-04-09T03:22:37.628Z,3.39
2023-04-09T03:23:43.276Z,3.38
2023-04-09T03:24:45.469Z,3.37
2023-04-09T03:25:48.260Z,3.34
2023-04-09T03:26:52.180Z,3.31
2023-04-09T03:27:55.073Z,3.29
2023-04-09T03:29:16.534Z,3.27
2023-04-09T03:30:18.726Z,3.27
2023-04-09T03:31:21.958Z,3.26
2023-04-09T03:32:23.978Z,3.24
2023-04-09T03:33:26.815Z,3.24
2023-04-09T03:34:32.158Z,3.22
2023-04-09T03:35:35.107Z,3.18
2023-04-09T03:36:39.004Z,3.15
2023-04-09T03:37:54.306Z,3.10
2023-04-09T03:38:57.478Z,3.07
2023-04-09T03:40:10.513Z,3.06
2023-04-09T03:41:13.825Z,3.04
2023-04-09T03:42:15.824Z,3.03
2023-04-09T03:43:23.105Z,3.03
2023-04-09T03:44:27.804Z,3.02
2023-04-09T03:45:35.512Z,3.03
2023-04-09T03:46:50.826Z,3.01
2023-04-09T03:47:57.446Z,3.00
2023-04-09T03:49:01.730Z,3.00
2023-04-09T03:50:16.300Z,3.01
2023-04-09T03:51:27.770Z,3.01
2023-04-09T03:52:33.925Z,3.03
2023-04-09T03:53:40.709Z,3.03
2023-04-09T03:54:43.956Z,3.06
2023-04-09T03:55:53.628Z,3.09
2023-04-09T03:57:01.438Z,3.12
2023-04-09T03:58:03.423Z,3.14
2023-04-09T03:59:10.023Z,3.16
2023-04-09T04:00:15.206Z,3.16
2023-04-09T04:01:26.826Z,3.13
2023-04-09T04:02:33.837Z,3.14
2023-04-09T04:03:43.984Z,3.13
2023-04-09T04:04:52.925Z,3.14
2023-04-09T04:06:03.421Z,3.14
2023-04-09T04:07:17.705Z,3.14
2023-04-09T04:08:29.816Z,3.13
2023-04-09T04:09:33.378Z,3.13
2023-04-09T04:10:41.554Z,3.13
2023-04-09T04:11:44.413Z,3.12
2023-04-09T04:12:47.889Z,3.08
2023-04-09T04:14:10.076Z,3.03
2023-04-09T04:15:14.751Z,3.01
2023-04-09T04:16:21.278Z,2.99
2023-04-09T04:17:24.529Z,2.98
2023-04-09T04:18:27.546Z,2.94
2023-04-09T04:19:30.746Z,2.92
2023-04-09T04:20:33.617Z,2.87
2023-04-09T04:21:44.094Z,2.82
2023-04-09T04:22:46.132Z,2.80
2023-04-09T04:23:49.100Z,2.77
2023-04-09T04:24:57.251Z,2.75
2023-04-09T04:26:01.164Z,2.76
2023-04-09T04:27:11.302Z,2.76
2023-04-09T04:28:13.294Z,2.79
2023-04-09T04:29:18.017Z,2.81
2023-04-09T04:30:28.965Z,2.83
2023-04-09T04:31:38.614Z,2.85
2023-04-09T04:32:40.776Z,2.87
2023-04-09T04:33:47.168Z,2.90
2023-04-09T04:34:50.914Z,2.92
2023-04-09T04:36:08.095Z,2.96
2023-04-09T04:37:38.337Z,2.99
2023-04-09T04:38:41.273Z,3.01
2023-04-09T04:39:51.230Z,3.02
2023-04-09T04:40:53.909Z,3.06
2023-04-09T04:41:58.323Z,3.08
2023-04-09T04:43:02.839Z,3.11
2023-04-09T04:44:07.200Z,3.12
2023-04-09T04:45:13.062Z,3.14
2023-04-09T04:46:28.812Z,3.17
2023-04-09T04:47:30.968Z,3.18
2023-04-09T04:48:34.618Z,3.20
2023-04-09T04:49:36.483Z,3.21
2023-04-09T04:50:41.941Z,3.22
2023-04-09T04:51:46.866Z,3.22
2023-04-09T04:52:53.185Z,3.23
2023-04-09T04:53:58.094Z,3.22
2023-04-09T04:55:01.798Z,3.25
2023-04-09T04:56:07.614Z,3.26
2023-04-09T04:57:10.645Z,3.29
2023-04-09T04:58:15.585Z,3.31
2023-04-09T04:59:23.005Z,3.33
2023-04-09T05:00:34.240Z,3.34
2023-04-09T05:01:39.507Z,3.36
2023-04-09T05:02:47.409Z,3.38
2023-04-09T05:03:54.299Z,3.43
2023-04-09T05:05:17.840Z,3.47
2023-04-09T05:06:27.948Z,3.50
2023-04-09T05:07:32.176Z,3.53
2023-04-09T05:08:36.588Z,3.57
2023-04-09T05:09:38.513Z,3.60
2023-04-09T05:10:44.675Z,3.61
2023-04-09T05:11:47.495Z,3.65
2023-04-09T05:12:55.033Z,3.67
2023-04-09T05:14:07.080Z,3.73
2023-04-09T05:15:10.349Z,3.77
2023-04-09T05:16:17.451Z,3.81
2023-04-09T05:17:24.672Z,3.84
2023-04-09T05:18:26.701Z,3.89
2023-04-09T05:19:29.879Z,3.92
2023-04-09T05:20:37.188Z,3.95
2023-04-09T05:21:46.804Z,3.99
2023-04-09T05:22:50.517Z,4.03
2023-04-09T05:24:02.401Z,4.03
2023-04-09T05:25:08.315Z,4.06
2023-04-09T05:26:14.644Z,4.07
2023-04-09T05:27:30.283Z,4.07
2023-04-09T05:28:37.232Z,4.07
2023-04-09T05:29:46.110Z,4.09
2023-04-09T05:30:49.444Z,4.10
2023-04-09T05:31:54.457Z,4.10
2023-04-09T05:33:02.425Z,4.13
2023-04-09T05:34:07.291Z,4.14
2023-04-09T05:35:14.081Z,4.14
2023-04-09T05:36:20.447Z,4.16
2023-04-09T05:37:22.318Z,4.18
2023-04-09T05:38:27.933Z,4.22
2023-04-09T05:39:35.056Z,4.26
2023-04-09T05:40:38.245Z,4.31
2023-04-09T05:41:47.562Z,4.35
2023-04-09T05:43:04.617Z,4.40
2023-04-09T05:44:15.680Z,4.46
2023-04-09T05:45:18.426Z,4.52
2023-04-09T05:46:25.810Z,4.57
2023-04-09T05:47:30.592Z,4.61
2023-04-09T05:48:38.803Z,4.65
2023-04-09T05:49:41.192Z,4.68
2023-04-09T05:50:55.078Z,4.69
2023-04-09T05:52:00.111Z,4.73
2023-04-09T05:53:05.545Z,4.77
2023-04-09T05:54:13.717Z,4.80
2023-04-09T05:55:18.646Z,4.85
2023-04-09T05:56:27.090Z,4.87
2023-04-09T05:57:33.329Z,4.91
2023-04-09T05:58:38.918Z,4.94
2023-04-09T05:59:41.755Z,4.98
2023-04-09T06:00:43.691Z,5.04
2023-04-09T06:01:46.569Z,5.09
2023-04-09T06:02:48.599Z,5.15
2023-04-09T06:03:53.831Z,5.18
2023-04-09T06:04:57.395Z,5.25
2023-04-09T06:06:01.066Z,5.32
2023-04-09T06:07:03.640Z,5.39
2023-04-09T06:08:06.491Z,5.44
2023-04-09T06:09:09.973Z,5.48
2023-04-09T06:10:14.383Z,5.52
2023-04-09T06:11:21.298Z,5.61
2023-04-09T06:12:24.107Z,5.68
2023-04-09T06:13:26.417Z,5.76
2023-04-09T06:14:29.287Z,5.83
2023-04-09T06:15:31.340Z,5.90
2023-04-09T06:16:34.858Z,5.95
2023-04-09T06:17:36.810Z,6.00
2023-04-09T06:18:39.636Z,6.02
2023-04-09T06:19:42.670Z,6.09
2023-04-09T06:20:44.610Z,6.14
2023-04-09T06:21:47.501Z,6.18
2023-04-09T06:22:50.379Z,6.22
2023-04-09T06:23:53.648Z,6.28
2023-04-09T06:24:57.269Z,6.34
2023-04-09T06:25:59.723Z,6.37
2023-04-09T06:27:04.329Z,6.40
2023-04-09T06:28:06.625Z,6.46
2023-04-09T06:29:11.484Z,6.52
2023-04-09T06:30:15.677Z,6.57
2023-04-09T06:31:17.781Z,6.64
2023-04-09T06:32:20.839Z,6.70
2023-04-09T06:33:24.236Z,6.74
2023-04-09T06:34:27.123Z,6.78
2023-04-09T06:35:31.695Z,6.80
2023-04-09T06:36:33.753Z,6.84
2023-04-09T06:37:45.966Z,6.89
2023-04-09T06:38:50.588Z,6.92
2023-04-09T06:40:00.445Z,6.91
2023-04-09T06:41:08.480Z,6.92
2023-04-09T06:42:11.897Z,6.93
2023-04-09T06:43:25.372Z,6.94
2023-04-09T06:44:29.804Z,6.97
2023-04-09T06:45:35.414Z,7.02
2023-04-09T06:46:37.538Z,7.08
2023-04-09T06:47:40.535Z,7.15
2023-04-09T06:48:44.614Z,7.21
2023-04-09T06:49:47.580Z,7.26
2023-04-09T06:50:49.501Z,7.31
2023-04-09T06:51:54.924Z,7.38
2023-04-09T06:52:58.405Z,7.41
2023-04-09T06:54:00.416Z,7.45
2023-04-09T06:55:03.617Z,7.48
2023-04-09T06:56:06.244Z,7.49
2023-04-09T06:57:09.323Z,7.52
2023-04-09T06:58:12.747Z,7.53
2023-04-09T06:59:16.225Z,7.54
2023-04-09T07:00:18.182Z,7.55
2023-04-09T07:01:21.769Z,7.56
2023-04-09T07:03:41.777Z,7.58
2023-04-09T07:04:45.026Z,7.56
2023-04-09T07:05:48.649Z,7.56
2023-04-09T07:06:54.832Z,7.59
2023-04-09T07:07:57.063Z,7.63
2023-04-09T07:09:00.026Z,7.66
2023-04-09T07:10:03.089Z,7.68
2023-04-09T07:11:06.547Z,7.71
2023-04-09T07:12:09.437Z,7.73
2023-04-09T07:13:12.764Z,7.73
2023-04-09T07:14:21.735Z,7.74
2023-04-09T07:15:23.703Z,7.75
2023-04-09T07:16:26.598Z,7.75
2023-04-09T07:17:37.557Z,7.76
2023-04-09T07:18:40.758Z,7.78
2023-04-09T07:19:42.701Z,7.78
2023-04-09T07:20:46.867Z,7.77
2023-04-09T07:21:48.762Z,7.79
2023-04-09T07:22:51.593Z,7.79
2023-04-09T07:23:54.806Z,7.79
2023-04-09T07:24:56.925Z,7.77
2023-04-09T07:26:03.302Z,7.77
2023-04-09T07:27:06.475Z,7.73
2023-04-09T07:28:08.488Z,7.72
2023-04-09T07:29:12.927Z,7.71
2023-04-09T07:30:15.018Z,7.72
2023-04-09T07:31:17.990Z,7.67
2023-04-09T07:32:22.556Z,7.64
2023-04-09T07:33:25.958Z,7.59
2023-04-09T07:34:28.566Z,7.54
2023-04-09T07:35:38.933Z,7.50
2023-04-09T07:36:43.108Z,7.46
2023-04-09T07:37:46.675Z,7.43
2023-04-09T07:38:49.817Z,7.42
2023-04-09T07:39:54.901Z,7.42
2023-04-09T07:40:58.458Z,7.41
2023-04-09T07:42:02.821Z,7.41
2023-04-09T07:43:07.567Z,7.40
2023-04-09T07:44:38.727Z,7.40
2023-04-09T07:45:45.051Z,7.43
2023-04-09T07:46:48.015Z,7.47
2023-04-09T07:47:51.577Z,7.50
2023-04-09T07:48:55.192Z,7.51
2023-04-09T07:49:57.301Z,7.51
2023-04-09T07:51:00.729Z,7.51
2023-04-09T07:52:44.631Z,7.51
2023-04-09T07:53:56.090Z,7.51
2023-04-09T07:54:58.572Z,7.52
2023-04-09T07:56:04.605Z,7.54
2023-04-09T07:57:14.843Z,7.56
2023-04-09T07:58:17.879Z,7.58
2023-04-09T07:59:20.053Z,7.63
2023-04-09T08:00:30.727Z,7.67
2023-04-09T08:01:32.953Z,7.70
2023-04-09T08:02:36.462Z,7.71
2023-04-09T08:03:39.621Z,7.73
2023-04-09T08:04:42.851Z,7.77
2023-04-09T08:05:45.989Z,7.80
2023-04-09T08:06:52.712Z,7.83
2023-04-09T08:07:54.767Z,7.87
2023-04-09T08:08:57.658Z,7.90
2023-04-09T08:09:59.587Z,7.94
2023-04-09T08:11:03.535Z,7.95
2023-04-09T08:12:05.638Z,7.99
2023-04-09T08:13:09.596Z,8.05
2023-04-09T08:14:13.916Z,8.11
2023-04-09T08:15:16.826Z,8.16
2023-04-09T08:16:23.569Z,8.19
2023-04-09T08:17:27.824Z,8.24
2023-04-09T08:18:31.285Z,8.29
2023-04-09T08:19:33.358Z,8.32
2023-04-09T08:20:36.573Z,8.30
2023-04-09T08:21:38.745Z,8.28
2023-04-09T08:22:44.676Z,8.30
2023-04-09T08:23:47.648Z,8.31
2023-04-09T08:24:52.826Z,8.33
2023-04-09T08:25:54.746Z,8.35
2023-04-09T08:26:58.569Z,8.36
2023-04-09T08:28:00.791Z,8.35
2023-04-09T08:29:03.810Z,8.33
2023-04-09T08:30:07.905Z,8.33
2023-04-09T08:31:09.825Z,8.33
2023-04-09T08:32:14.224Z,8.32
2023-04-09T08:34:48.702Z,8.33
2023-04-09T08:35:51.597Z,8.31
2023-04-09T08:36:53.640Z,8.33
2023-04-09T08:37:57.620Z,8.34
2023-04-09T08:39:00.568Z,8.37
2023-04-09T08:40:03.935Z,8.40
2023-04-09T08:41:05.898Z,8.40
2023-04-09T08:42:12.547Z,8.42
2023-04-09T08:43:16.824Z,8.42
2023-04-09T08:44:18.852Z,8.40
2023-04-09T08:45:22.460Z,8.40
2023-04-09T08:46:24.944Z,8.39
2023-04-09T08:47:29.467Z,8.39
2023-04-09T08:48:32.671Z,8.35
2023-04-09T08:49:35.823Z,8.31
2023-04-09T08:50:37.772Z,8.25
2023-04-09T08:51:40.804Z,8.22
2023-04-09T08:52:43.044Z,8.17
2023-04-09T08:53:47.752Z,8.17
2023-04-09T08:54:52.109Z,8.18
2023-04-09T08:55:54.895Z,8.17
2023-04-09T08:56:58.937Z,8.17
2023-04-09T08:58:04.716Z,8.16
2023-04-09T08:59:07.660Z,8.15
2023-04-09T09:00:10.607Z,8.17
2023-04-09T09:01:21.722Z,8.20
2023-04-09T09:02:24.998Z,8.24
2023-04-09T09:03:28.430Z,8.28
2023-04-09T09:04:44.970Z,8.32
2023-04-09T09:05:47.124Z,8.32
2023-04-09T09:06:50.208Z,8.35
2023-04-09T09:07:54.662Z,8.42
2023-04-09T09:09:06.122Z,8.46
2023-04-09T09:10:09.819Z,8.47
2023-04-09T09:11:25.917Z,8.49
2023-04-09T09:12:36.972Z,8.50
2023-04-09T09:13:39.869Z,8.54
2023-04-09T09:14:42.957Z,8.57
2023-04-09T09:15:46.194Z,8.64
2023-04-09T09:17:05.314Z,8.69
2023-04-09T09:18:08.732Z,8.70
2023-04-09T09:19:30.472Z,8.72
2023-04-09T09:20:32.506Z,8.70
2023-04-09T09:21:36.490Z,8.72
2023-04-09T09:22:54.923Z,8.70
2023-04-09T09:23:58.812Z,8.64
2023-04-09T09:25:00.974Z,8.61
2023-04-09T09:26:13.186Z,8.57
2023-04-09T09:27:31.407Z,8.56
2023-04-09T09:28:36.404Z,8.59
2023-04-09T09:29:41.858Z,8.64
2023-04-09T09:30:49.174Z,8.70
2023-04-09T09:31:55.591Z,8.74
2023-04-09T09:33:05.772Z,8.77
2023-04-09T09:34:10.162Z,8.78
2023-04-09T09:35:14.781Z,8.78
2023-04-09T09:36:17.742Z,8.78
2023-04-09T09:37:26.995Z,8.77
2023-04-09T09:38:32.147Z,8.74
2023-04-09T09:39:44.696Z,8.76
2023-04-09T09:40:47.780Z,8.77
2023-04-09T09:42:08.188Z,8.85
2023-04-09T09:43:11.878Z,8.89
2023-04-09T09:44:32.910Z,8.93
2023-04-09T09:45:36.757Z,8.97
2023-04-09T09:46:41.647Z,9.04
2023-04-09T09:47:44.670Z,9.10
2023-04-09T09:48:50.003Z,9.15
2023-04-09T09:49:52.441Z,9.20
2023-04-09T09:50:56.920Z,9.28
2023-04-09T09:52:00.590Z,9.35
2023-04-09T09:53:05.589Z,9.37
2023-04-09T09:54:08.523Z,9.39
2023-04-09T09:55:14.940Z,9.42
2023-04-09T09:56:20.770Z,9.48
2023-04-09T09:57:26.804Z,9.57
2023-04-09T09:58:32.782Z,9.63
2023-04-09T09:59:38.930Z,9.71
2023-04-09T10:00:41.341Z,9.77
2023-04-09T10:01:47.505Z,9.83
2023-04-09T10:02:59.318Z,9.86
2023-04-09T10:04:02.829Z,9.92
2023-04-09T10:05:07.450Z,9.99
2023-04-09T10:06:12.605Z,10.03
2023-04-09T10:07:16.120Z,10.04
2023-04-09T10:08:19.717Z,10.04
2023-04-09T10:09:23.232Z,10.02
2023-04-09T10:10:25.302Z,10.06
2023-04-09T10:11:28.310Z,10.09
2023-04-09T10:12:31.296Z,10.11
2023-04-09T10:13:36.689Z,10.16
2023-04-09T10:14:41.095Z,10.21
2023-04-09T10:15:44.705Z,10.27
2023-04-09T10:16:47.698Z,10.33
2023-04-09T10:17:50.604Z,10.40
2023-04-09T10:18:54.517Z,10.47
2023-04-09T10:20:01.870Z,10.52
2023-04-09T10:21:10.432Z,10.54
2023-04-09T10:22:19.186Z,10.56
2023-04-09T10:23:29.192Z,10.56
2023-04-09T10:24:32.714Z,10.60
2023-04-09T10:25:35.676Z,10.64
2023-04-09T10:26:42.085Z,10.73
2023-04-09T10:27:46.129Z,10.85
2023-04-09T10:29:05.443Z,10.98
2023-04-09T10:30:10.774Z,11.05
2023-04-09T10:31:14.322Z,11.10
2023-04-09T10:32:21.611Z,11.12
2023-04-09T10:33:26.649Z,11.10
2023-04-09T10:34:30.177Z,11.09
2023-04-09T10:35:32.088Z,11.10
2023-04-09T10:36:34.984Z,11.13
2023-04-09T10:37:49.644Z,11.19
2023-04-09T10:38:52.692Z,11.21
2023-04-09T10:39:54.893Z,11.22
2023-04-09T10:40:58.562Z,11.24
2023-04-09T10:42:02.448Z,11.30
2023-04-09T10:43:06.461Z,11.33
2023-04-09T10:44:20.441Z,11.37
2023-04-09T10:45:23.421Z,11.39
2023-04-09T10:46:26.907Z,11.44
2023-04-09T10:47:33.765Z,11.56
2023-04-09T10:48:35.936Z,11.70
2023-04-09T10:49:42.819Z,11.85
2023-04-09T10:50:51.192Z,12.03
2023-04-09T10:51:55.618Z,12.18
2023-04-09T10:53:02.275Z,12.32
2023-04-09T10:54:46.231Z,12.42
2023-04-09T10:55:50.504Z,12.39
2023-04-09T10:57:14.032Z,12.41
2023-04-09T10:58:17.010Z,12.51
2023-04-09T10:59:21.042Z,12.68
2023-04-09T11:00:27.351Z,12.89
2023-04-09T11:01:29.417Z,13.03
2023-04-09T11:03:08.422Z,13.14
2023-04-09T11:04:43.131Z,13.34
2023-04-09T11:05:49.400Z,13.64
2023-04-09T11:06:53.374Z,14.00
2023-04-09T11:07:59.607Z,14.32
2023-04-09T11:09:04.673Z,14.68
2023-04-09T11:10:07.989Z,15.05
2023-04-09T11:11:11.530Z,15.31
2023-04-09T11:12:13.413Z,15.45
2023-04-09T11:13:17.586Z,15.40
2023-04-09T11:14:20.038Z,15.15
2023-04-09T11:15:23.305Z,14.95
2023-04-09T11:16:29.004Z,14.80
2023-04-09T11:17:31.480Z,14.69
2023-04-09T11:18:36.971Z,14.65
2023-04-09T11:20:08.709Z,14.71
2023-04-09T11:21:13.436Z,14.75
2023-04-09T11:22:15.668Z,14.83
2023-04-09T11:23:19.138Z,14.92
2023-04-09T11:24:23.185Z,14.98
2023-04-09T11:25:27.848Z,15.06
2023-04-09T11:26:36.061Z,15.35
2023-04-09T11:27:39.811Z,15.57
2023-04-09T11:28:44.451Z,15.69
2023-04-09T11:29:46.375Z,15.82
2023-04-09T11:30:53.023Z,15.96
2023-04-09T11:31:55.542Z,15.96
2023-04-09T11:32:58.550Z,15.98
2023-04-09T11:34:01.433Z,16.09
2023-04-09T11:35:03.731Z,16.28
2023-04-09T11:36:07.399Z,16.60
2023-04-09T11:37:14.418Z,16.98
2023-04-09T11:38:17.414Z,17.31
2023-04-09T11:39:19.317Z,17.64
2023-04-09T11:40:24.576Z,17.78
2023-04-09T11:41:36.683Z,17.81
2023-04-09T11:42:38.779Z,17.83
2023-04-09T11:43:41.772Z,17.81
2023-04-09T11:44:51.611Z,17.65
2023-04-09T11:45:53.959Z,17.67
2023-04-09T11:46:58.108Z,17.68
2023-04-09T11:48:03.353Z,17.69
2023-04-09T11:49:05.520Z,17.67
2023-04-09T11:50:09.734Z,17.62
2023-04-09T11:51:12.632Z,17.54
2023-04-09T11:52:16.522Z,17.45
2023-04-09T11:53:20.789Z,17.18
2023-04-09T11:54:22.859Z,16.92
2023-04-09T11:55:28.218Z,16.77
2023-04-09T11:56:31.139Z,16.65
2023-04-09T11:57:44.753Z,16.53
2023-04-09T11:58:48.187Z,16.41
2023-04-09T11:59:50.202Z,16.30
2023-04-09T12:01:01.361Z,16.24
2023-04-09T12:02:07.837Z,16.17
2023-04-09T12:03:12.182Z,16.13
2023-04-09T12:04:21.361Z,16.16
2023-04-09T12:05:24.875Z,16.19
2023-04-09T12:06:28.583Z,16.26
2023-04-09T12:07:33.303Z,16.29
2023-04-09T12:08:37.332Z,16.34
2023-04-09T12:09:47.737Z,16.40
2023-04-09T12:10:53.578Z,16.39
2023-04-09T12:11:57.471Z,16.34
2023-04-09T12:13:04.618Z,16.12
2023-04-09T12:14:07.906Z,15.84
2023-04-09T12:15:20.704Z,15.56
2023-04-09T12:16:23.886Z,15.44
2023-04-09T12:17:27.080Z,15.41
2023-04-09T12:18:30.014Z,15.58
2023-04-09T12:19:32.051Z,15.75
2023-04-09T12:20:36.677Z,15.84
2023-04-09T12:21:50.055Z,15.71
2023-04-09T12:22:52.085Z,15.51
2023-04-09T12:23:55.349Z,15.30
2023-04-09T12:24:57.789Z,15.01
2023-04-09T12:26:02.447Z,14.78
2023-04-09T12:27:07.032Z,14.63
2023-04-09T12:28:12.042Z,14.62
2023-04-09T12:29:15.070Z,14.55
2023-04-09T12:30:18.971Z,14.44
2023-04-09T12:31:22.066Z,14.32
2023-04-09T12:32:24.435Z,14.22
2023-04-09T12:33:31.108Z,14.04
2023-04-09T12:34:42.415Z,13.84
2023-04-09T12:35:45.696Z,13.68
2023-04-09T12:36:48.371Z,13.57
2023-04-09T12:37:52.114Z,13.48
2023-04-09T12:38:54.319Z,13.36
2023-04-09T12:39:57.697Z,13.27
2023-04-09T12:41:04.425Z,13.18
2023-04-09T12:42:06.955Z,13.07
2023-04-09T12:43:10.537Z,12.99
2023-04-09T12:44:13.038Z,12.93
2023-04-09T12:45:19.346Z,12.85
2023-04-09T12:46:22.020Z,12.77
2023-04-09T12:47:25.123Z,12.74
2023-04-09T12:48:27.691Z,12.71
2023-04-09T12:49:31.769Z,12.67
2023-04-09T12:50:37.118Z,12.58
2023-04-09T12:51:40.237Z,12.49
2023-04-09T12:52:43.086Z,12.39
2023-04-09T12:53:46.467Z,12.32
2023-04-09T12:54:49.113Z,12.28
2023-04-09T12:56:23.791Z,12.20
2023-04-09T12:57:28.054Z,12.15
2023-04-09T12:58:54.449Z,12.08
2023-04-09T13:00:31.369Z,12.02
2023-04-09T13:02:29.518Z,11.80
2023-04-09T13:03:33.520Z,11.60
2023-04-09T13:04:39.966Z,11.43
2023-04-09T13:05:46.079Z,11.30
2023-04-09T13:06:48.688Z,11.20
2023-04-09T13:07:53.602Z,11.07
2023-04-09T13:10:21.707Z,10.73
2023-04-09T13:11:27.858Z,10.61
2023-04-09T13:12:40.260Z,10.44
2023-04-09T13:14:04.545Z,10.23
2023-04-09T13:15:58.838Z,9.91
2023-04-09T13:17:03.107Z,9.75
2023-04-09T13:18:07.056Z,9.63
2023-04-09T13:19:09.731Z,9.52
2023-04-09T13:20:13.081Z,9.41
2023-04-09T13:21:18.815Z,9.32
2023-04-09T13:22:22.524Z,9.25
2023-04-09T13:23:24.550Z,9.17
2023-04-09T13:24:28.286Z,9.13
2023-04-09T13:25:31.414Z,9.12
2023-04-09T13:26:34.875Z,9.14
2023-04-09T13:27:38.132Z,9.21
2023-04-09T13:28:40.675Z,9.30
2023-04-09T13:29:47.318Z,9.45
2023-04-09T13:30:49.810Z,9.63
2023-04-09T13:31:53.000Z,9.78
2023-04-09T13:32:56.289Z,9.89
2023-04-09T13:34:02.873Z,10.06
2023-04-09T13:35:07.838Z,10.27
2023-04-09T13:36:12.255Z,10.44
2023-04-09T13:37:14.653Z,10.61
2023-04-09T13:38:17.895Z,10.77
2023-04-09T13:39:20.416Z,11.08
2023-04-09T13:40:24.730Z,11.38
2023-04-09T13:41:29.851Z,11.60
2023-04-09T13:42:37.460Z,11.70
2023-04-09T13:43:39.696Z,11.69
2023-04-09T13:44:45.474Z,11.65
2023-04-09T13:45:51.791Z,11.58
2023-04-09T13:46:55.825Z,11.49
2023-04-09T13:47:58.389Z,11.41
2023-04-09T13:49:02.831Z,11.34
2023-04-09T13:50:07.600Z,11.23
2023-04-09T13:51:10.805Z,11.09
2023-04-09T13:52:14.443Z,10.96
2023-04-09T13:53:17.022Z,10.88
2023-04-09T13:54:20.184Z,10.87
2023-04-09T13:55:22.252Z,10.91
2023-04-09T13:56:25.433Z,10.93
2023-04-09T13:57:27.395Z,10.95
2023-04-09T13:58:31.703Z,11.03
2023-04-09T13:59:34.915Z,11.12
2023-04-09T14:00:38.124Z,11.19
2023-04-09T14:01:42.794Z,11.28
2023-04-09T14:02:47.604Z,11.35
2023-04-09T14:03:49.836Z,11.38
2023-04-09T14:04:52.827Z,11.42
2023-04-09T14:05:54.917Z,11.46
2023-04-09T14:06:58.414Z,11.47
2023-04-09T14:08:00.361Z,11.50
2023-04-09T14:09:04.793Z,11.55
2023-04-09T14:10:08.096Z,11.61
2023-04-09T14:11:13.971Z,11.70
2023-04-09T14:12:16.304Z,11.83
2023-04-09T14:13:19.206Z,11.95
2023-04-09T14:14:23.845Z,12.11
2023-04-09T14:15:26.369Z,12.33
2023-04-09T14:16:30.878Z,12.45
2023-04-09T14:17:33.471Z,12.55
2023-04-09T14:18:36.771Z,12.65
2023-04-09T14:19:40.413Z,12.71
2023-04-09T14:20:42.429Z,12.76
2023-04-09T14:21:47.124Z,12.82
2023-04-09T14:22:50.171Z,12.88
2023-04-09T14:23:53.576Z,12.98
2023-04-09T14:24:55.774Z,13.03
2023-04-09T14:25:58.806Z,13.11
2023-04-09T14:27:02.872Z,13.14